Time;durP1;ratioP1;P1;durP2;ratioP2;P2;SDS_P1;SDS_P2;PMS_P1;PMS_P2;Temp;Humidity;BMP_temperature;BMP_pressure;BME280_temperature;BME280_humidity;BME280_pressure;Samples;Min_cycle;Max_cycle;Signal;HPM_P1;HPM_P2
2022/07/24 00:01:33;;;;;;;15.48;12.13;;;;;;;19.52;67.72;101839.69;4985508;28;20031;-65
2022/07/24 00:03:58;;;;;;;16.73;12.35;;;;;;;19.51;66.90;101844.97;4990617;28;20073;-65
2022/07/24 00:06:24;;;;;;;15.43;12.02;;;;;;;19.48;67.14;101840.59;4988876;28;20050;-65
2022/07/24 00:08:49;;;;;;;15.25;11.88;;;;;;;19.42;67.32;101843.19;4985853;28;20398;-65
2022/07/24 00:11:14;;;;;;;16.40;12.55;;;;;;;19.40;67.02;101837.91;4989394;28;20034;-65
2022/07/24 00:13:40;;;;;;;15.65;12.15;;;;;;;19.37;67.31;101831.75;4987135;28;20026;-65
2022/07/24 00:16:05;;;;;;;15.75;12.15;;;;;;;19.34;67.86;101835.25;4990309;28;20033;-65
2022/07/24 00:18:31;;;;;;;16.95;12.82;;;;;;;19.28;67.93;101827.31;4987520;28;20049;-65
2022/07/24 00:20:56;;;;;;;14.52;12.23;;;;;;;19.28;67.86;101824.69;4987973;28;20029;-65
2022/07/24 00:23:23;;;;;;;14.23;11.48;;;;;;;19.26;67.60;101822.03;4987102;28;20037;-65
2022/07/24 00:25:48;;;;;;;15.30;12.02;;;;;;;19.24;67.62;101823.78;4983013;28;20022;-65
2022/07/24 00:28:14;;;;;;;15.00;12.07;;;;;;;19.22;67.70;101819.34;4988662;28;20028;-65
2022/07/24 00:30:39;;;;;;;15.32;11.98;;;;;;;19.18;67.56;101822.88;4990395;28;20101;-65
2022/07/24 00:33:05;;;;;;;14.65;11.80;;;;;;;19.14;67.98;101829.91;4985503;28;20085;-65
2022/07/24 00:35:30;;;;;;;15.00;12.55;;;;;;;19.13;67.74;101822.84;4981981;28;20113;-65
2022/07/24 00:37:55;;;;;;;14.07;12.20;;;;;;;19.11;67.86;101824.59;4988151;28;20030;-65
2022/07/24 00:40:21;;;;;;;15.32;11.85;;;;;;;19.09;67.88;101826.38;4986137;28;20526;-65
2022/07/24 00:42:47;;;;;;;14.77;12.05;;;;;;;19.04;67.72;101822.81;4987615;28;20125;-65
2022/07/24 00:45:12;;;;;;;15.75;13.38;;;;;;;19.02;67.63;101825.44;4987428;28;20097;-65
2022/07/24 00:47:38;;;;;;;19.77;13.27;;;;;;;18.99;67.78;101828.09;4988658;28;20041;-65
2022/07/24 00:50:04;;;;;;;17.30;13.77;;;;;;;18.98;67.81;101830.72;4969521;28;20485;-65
2022/07/24 00:52:30;;;;;;;16.83;12.77;;;;;;;18.95;67.94;101828.94;4989933;28;20069;-65
2022/07/24 00:54:56;;;;;;;20.27;13.88;;;;;;;18.92;67.88;101831.56;4983770;28;20490;-65
2022/07/24 00:57:21;;;;;;;18.25;13.45;;;;;;;18.91;68.04;101827.16;4989534;28;20030;-65
2022/07/24 00:59:47;;;;;;;18.60;14.40;;;;;;;18.88;68.30;101824.50;4987448;28;20030;-65
2022/07/24 01:02:12;;;;;;;18.02;14.43;;;;;;;18.84;68.15;101818.31;4988358;28;20026;-65
2022/07/24 01:04:38;;;;;;;19.25;14.88;;;;;;;18.79;68.54;101827.94;4985279;28;20033;-65
2022/07/24 01:07:04;;;;;;;19.95;14.73;;;;;;;18.77;69.13;101830.59;4972033;28;20030;-65
2022/07/24 01:09:30;;;;;;;16.70;14.10;;;;;;;18.74;68.74;101822.66;4988092;28;20074;-65
2022/07/24 01:11:56;;;;;;;17.00;13.95;;;;;;;18.73;69.01;101828.81;4985805;28;20065;-65
2022/07/24 01:14:22;;;;;;;16.95;13.50;;;;;;;18.72;68.68;101815.59;4985502;28;20473;-65
2022/07/24 01:16:48;;;;;;;15.32;12.77;;;;;;;18.72;68.35;101813.81;4988544;28;20026;-65
2022/07/24 01:19:13;;;;;;;15.75;13.52;;;;;;;18.71;68.54;101808.53;4987982;28;20061;-65
2022/07/24 01:21:44;;;;;;;17.05;13.57;;;;;;;18.70;69.37;101810.31;4988282;28;20450;-65
2022/07/24 01:24:10;;;;;;;15.57;12.68;;;;;;;18.67;69.14;101807.66;4983123;28;20081;-65
2022/07/24 01:26:35;;;;;;;17.05;13.23;;;;;;;18.64;69.02;101812.00;4987650;28;20076;-65
2022/07/24 01:29:01;;;;;;;15.93;12.90;;;;;;;18.66;69.07;101805.00;4987849;28;20030;-65
2022/07/24 01:31:26;;;;;;;16.30;12.73;;;;;;;18.63;68.84;101799.72;4982702;28;20383;-65
2022/07/24 01:33:51;;;;;;;16.40;13.00;;;;;;;18.62;69.29;101804.09;4986755;28;20022;-65
2022/07/24 01:36:16;;;;;;;16.98;12.65;;;;;;;18.60;69.04;101805.84;4983894;28;20054;-65
2022/07/24 01:38:42;;;;;;;15.43;12.02;;;;;;;18.59;68.31;101802.31;4987196;28;20046;-65
2022/07/24 01:41:07;;;;;;;16.75;12.82;;;;;;;18.56;68.51;101811.97;4987481;28;20389;-65
2022/07/24 01:43:32;;;;;;;16.70;13.30;;;;;;;18.53;68.45;101806.69;4983606;28;20042;-65
2022/07/24 01:45:58;;;;;;;16.15;13.07;;;;;;;18.51;68.87;101803.13;4982385;28;20022;-65
2022/07/24 01:48:23;;;;;;;17.23;13.75;;;;;;;18.48;69.20;101800.47;4985460;28;20038;-65
2022/07/24 01:50:49;;;;;;;19.00;13.95;;;;;;;18.45;69.48;101796.09;4987872;28;20470;-65
2022/07/24 01:53:15;;;;;;;16.35;12.90;;;;;;;18.45;69.01;101796.09;4985072;28;20413;-65
2022/07/24 01:55:40;;;;;;;16.60;12.93;;;;;;;18.47;69.31;101793.47;4986349;28;20379;-65
2022/07/24 01:58:06;;;;;;;15.90;12.32;;;;;;;18.45;69.27;101796.09;4986781;28;20044;-65
2022/07/24 02:00:31;;;;;;;16.20;12.80;;;;;;;18.44;69.14;101796.97;4988730;28;20597;-65
2022/07/24 02:02:56;;;;;;;15.35;12.32;;;;;;;18.45;68.50;101795.19;4985594;28;20085;-65
2022/07/24 02:05:22;;;;;;;16.15;12.23;;;;;;;18.44;68.50;101799.59;4988431;28;20041;-65
2022/07/24 02:07:55;;;;;;;15.45;11.63;;;;;;;18.42;68.60;101801.31;4986991;28;20544;-65
2022/07/24 02:10:20;;;;;;;14.63;11.73;;;;;;;18.40;68.31;101800.44;4991108;28;20054;-65
2022/07/24 02:12:45;;;;;;;16.88;12.02;;;;;;;18.38;68.68;101794.28;4991569;28;20061;-65
2022/07/24 02:15:10;;;;;;;16.25;11.68;;;;;;;18.35;68.43;101799.53;4991249;28;21609;-65
2022/07/24 02:17:36;;;;;;;15.70;11.93;;;;;;;18.31;68.58;101795.13;4990207;28;20093;-65
2022/07/24 02:20:01;;;;;;;17.83;12.20;;;;;;;18.31;68.44;101792.47;4972570;28;20030;-65
2022/07/24 02:22:26;;;;;;;14.80;11.98;;;;;;;18.29;68.61;101794.22;4988953;28;20060;-65
2022/07/24 02:24:52;;;;;;;15.02;12.10;;;;;;;18.24;69.13;101796.81;4974186;28;20038;-65
2022/07/24 02:27:17;;;;;;;13.40;11.27;;;;;;;18.19;69.15;101786.25;4991356;28;20018;-60
2022/07/24 02:29:42;;;;;;;14.45;11.07;;;;;;;18.18;69.22;101783.59;4991140;28;20030;-60
2022/07/24 02:32:08;;;;;;;14.70;11.95;;;;;;;18.16;69.50;101786.22;4990555;28;20441;-60
2022/07/24 02:34:33;;;;;;;14.23;10.93;;;;;;;18.11;69.84;101789.69;4991400;28;20026;-60
2022/07/24 02:36:58;;;;;;;15.38;11.07;;;;;;;18.06;70.05;101794.91;4992342;28;20440;-60
2022/07/24 02:39:24;;;;;;;13.93;11.10;;;;;;;18.05;69.81;101782.63;4992426;28;20540;-60
2022/07/24 02:41:49;;;;;;;13.48;11.27;;;;;;;18.03;70.47;101782.59;4992338;28;20501;-60
2022/07/24 02:44:16;;;;;;;14.30;11.25;;;;;;;18.06;69.89;101792.28;4989273;28;20030;-60
2022/07/24 02:46:41;;;;;;;14.60;11.95;;;;;;;18.04;69.89;101791.38;4985512;28;20058;-60
2022/07/24 02:49:07;;;;;;;16.58;11.73;;;;;;;18.04;69.60;101799.31;4990361;28;20060;-59
2022/07/24 02:51:32;;;;;;;13.95;11.23;;;;;;;18.03;69.66;101805.44;4989059;28;20034;-60
2022/07/24 02:53:57;;;;;;;15.75;11.07;;;;;;;17.99;69.28;101808.94;4989364;28;20022;-60
2022/07/24 02:56:22;;;;;;;15.10;11.65;;;;;;;17.97;70.01;101802.75;4990780;28;20069;-65
2022/07/24 02:58:48;;;;;;;14.85;11.52;;;;;;;17.93;70.77;101803.59;4991487;28;20485;-65
2022/07/24 03:01:13;;;;;;;14.40;11.57;;;;;;;17.92;70.72;101807.13;4990772;28;20061;-65
2022/07/24 03:03:38;;;;;;;14.70;11.35;;;;;;;17.92;70.80;101801.84;4988496;28;20030;-65
2022/07/24 03:06:04;;;;;;;14.38;11.13;;;;;;;17.93;70.27;101800.97;4988929;28;20037;-65
2022/07/24 03:08:29;;;;;;;17.25;12.93;;;;;;;17.94;70.19;101802.75;4987097;28;20035;-65
2022/07/24 03:10:55;;;;;;;16.27;11.43;;;;;;;17.89;71.09;101806.19;4989728;28;20034;-65
2022/07/24 03:13:20;;;;;;;13.52;11.18;;;;;;;17.89;70.71;101798.28;4987204;28;20030;-65
2022/07/24 03:15:45;;;;;;;14.30;11.55;;;;;;;17.89;70.68;101793.00;4989950;28;20045;-65
2022/07/24 03:18:11;;;;;;;16.23;11.93;;;;;;;17.86;71.40;101795.63;4990147;28;20058;-65
2022/07/24 03:20:36;;;;;;;16.10;11.60;;;;;;;17.86;71.19;101798.25;4987642;28;20109;-65
2022/07/24 03:23:02;;;;;;;14.52;11.77;;;;;;;17.84;71.18;101788.56;4991741;28;20636;-65
2022/07/24 03:25:27;;;;;;;14.82;12.02;;;;;;;17.85;70.89;101799.09;4989881;28;20403;-65
2022/07/24 03:27:52;;;;;;;14.77;12.15;;;;;;;17.79;71.27;101787.66;4991342;28;20042;-65
2022/07/24 03:30:18;;;;;;;15.73;12.38;;;;;;;17.77;70.81;101789.38;4989517;28;20030;-65
2022/07/24 03:32:44;;;;;;;15.77;12.90;;;;;;;17.75;70.99;101786.72;4986888;28;21023;-65
2022/07/24 03:35:09;;;;;;;16.50;12.82;;;;;;;17.75;70.76;101781.44;4973609;28;20401;-65
2022/07/24 03:37:35;;;;;;;17.75;13.82;;;;;;;17.77;71.06;101789.38;4991401;28;20022;-65
2022/07/24 03:40:01;;;;;;;16.60;13.15;;;;;;;17.75;71.85;101788.47;4990569;28;20069;-65
2022/07/24 03:42:26;;;;;;;17.55;13.18;;;;;;;17.75;71.35;101793.75;4989041;28;20635;-65
2022/07/24 03:44:52;;;;;;;19.48;13.20;;;;;;;17.73;72.18;101788.47;4985746;28;20045;-65
2022/07/24 03:47:17;;;;;;;17.67;13.48;;;;;;;17.72;71.52;101790.19;4987710;28;20023;-65
2022/07/24 03:49:42;;;;;;;17.90;13.88;;;;;;;17.75;71.03;101786.72;4973218;28;20037;-65
2022/07/24 03:52:08;;;;;;;18.48;14.18;;;;;;;17.73;71.63;101788.47;4986463;28;20064;-65
2022/07/24 03:54:33;;;;;;;17.05;13.18;;;;;;;17.71;71.89;101779.66;4988842;28;20108;-65
2022/07/24 03:56:58;;;;;;;20.33;15.27;;;;;;;17.70;71.90;101778.78;4991041;28;20057;-65
2022/07/24 03:59:24;;;;;;;20.38;15.55;;;;;;;17.68;71.94;101779.63;4985577;28;21256;-65
2022/07/24 04:01:49;;;;;;;18.02;14.15;;;;;;;17.70;71.68;101777.91;4986558;28;20462;-65
2022/07/24 04:04:14;;;;;;;19.45;13.50;;;;;;;17.64;72.26;101778.72;4990610;28;20045;-65
2022/07/24 04:06:40;;;;;;;20.55;13.77;;;;;;;17.63;72.31;101784.00;4990407;28;20042;-65
2022/07/24 04:09:06;;;;;;;21.67;14.63;;;;;;;17.62;72.38;101782.22;4990248;28;20523;-65
2022/07/24 04:11:31;;;;;;;24.75;16.02;;;;;;;17.59;72.69;101782.19;4987718;28;20027;-65
2022/07/24 04:13:57;;;;;;;19.08;15.02;;;;;;;17.59;71.75;101780.41;4988836;28;20500;-65
2022/07/24 04:16:22;;;;;;;23.13;15.88;;;;;;;17.56;72.48;101775.13;4986406;28;20034;-65
2022/07/24 04:18:48;;;;;;;20.20;15.38;;;;;;;17.54;72.45;101777.75;4987620;28;20410;-65
2022/07/24 04:21:14;;;;;;;20.60;16.40;;;;;;;17.55;72.11;101778.63;4989841;28;20065;-65
2022/07/24 04:23:39;;;;;;;23.10;17.35;;;;;;;17.54;72.68;101775.13;4988090;28;20085;-65
2022/07/24 04:26:04;;;;;;;22.67;17.92;;;;;;;17.52;73.19;101778.59;4990779;28;20509;-65
2022/07/24 04:28:30;;;;;;;23.35;17.65;;;;;;;17.51;73.11;101790.91;4985797;28;20037;-65
2022/07/24 04:30:55;;;;;;;23.48;18.63;;;;;;;17.51;72.42;101792.63;4984140;28;20022;-65
2022/07/24 04:33:21;;;;;;;23.02;18.08;;;;;;;17.50;72.98;101791.75;4986942;28;20551;-65
2022/07/24 04:35:46;;;;;;;26.73;17.88;;;;;;;17.51;72.87;101790.00;4986288;28;20034;-65
2022/07/24 04:38:11;;;;;;;23.27;17.27;;;;;;;17.49;72.78;101795.25;4986275;28;20061;-65
2022/07/24 04:40:36;;;;;;;24.77;17.77;;;;;;;17.47;72.93;101797.00;4989231;28;20054;-65
2022/07/24 04:43:02;;;;;;;25.02;18.77;;;;;;;17.49;73.26;101799.66;4990347;28;20038;-65
2022/07/24 04:45:27;;;;;;;27.73;19.00;;;;;;;17.49;72.72;101797.88;4989963;28;20060;-65
2022/07/24 04:47:53;;;;;;;26.40;19.02;;;;;;;17.49;73.20;101804.91;4989496;28;20030;-65
2022/07/24 04:50:18;;;;;;;28.27;18.38;;;;;;;17.50;73.24;101798.78;4989316;28;20018;-65
2022/07/24 04:52:43;;;;;;;25.90;19.30;;;;;;;17.49;73.39;101791.75;4987740;28;20022;-65
2022/07/24 04:55:10;;;;;;;31.88;21.58;;;;;;;17.48;73.62;101797.88;4987900;28;20018;-65
2022/07/24 04:57:35;;;;;;;28.85;20.55;;;;;;;17.47;73.68;101802.28;4990390;28;20084;-65
2022/07/24 05:00:01;;;;;;;29.63;20.38;;;;;;;17.45;73.75;101798.75;4989141;28;20034;-65
2022/07/24 05:02:26;;;;;;;27.60;20.67;;;;;;;17.47;74.16;101797.00;4990206;28;20034;-65
2022/07/24 05:04:51;;;;;;;29.48;20.77;;;;;;;17.48;74.09;101796.16;4989230;28;20513;-65
2022/07/24 05:07:17;;;;;;;31.30;20.95;;;;;;;17.46;73.88;101792.59;4987619;28;20057;-65
2022/07/24 05:09:42;;;;;;;29.80;21.92;;;;;;;17.45;74.55;101787.31;4987673;28;20022;-65
2022/07/24 05:12:08;;;;;;;40.05;24.58;;;;;;;17.46;74.49;101789.97;4990058;28;20116;-65
2022/07/24 05:14:33;;;;;;;35.08;24.55;;;;;;;17.48;75.30;101789.97;4990142;28;20049;-65
2022/07/24 05:16:58;;;;;;;35.83;25.67;;;;;;;17.46;75.91;101789.97;4988719;28;20026;-65
2022/07/24 05:19:24;;;;;;;36.42;25.95;;;;;;;17.47;75.67;101791.72;4967884;28;20042;-65
2022/07/24 05:21:49;;;;;;;38.10;26.38;;;;;;;17.49;76.18;101794.38;4984590;28;20037;-65
2022/07/24 05:24:14;;;;;;;40.40;26.75;;;;;;;17.50;75.70;101796.16;4981799;28;20202;-65
2022/07/24 05:26:39;;;;;;;39.88;27.75;;;;;;;17.52;76.52;101800.59;4985141;28;20497;-65
2022/07/24 05:29:06;;;;;;;46.78;30.83;;;;;;;17.54;77.42;101804.09;4986820;28;20038;-65
2022/07/24 05:31:32;;;;;;;44.45;29.92;;;;;;;17.55;77.13;101800.59;4985545;28;20080;-65
2022/07/24 05:33:58;;;;;;;45.72;30.58;;;;;;;17.56;78.46;101802.34;4985881;28;20030;-65
2022/07/24 05:36:24;;;;;;;49.42;31.58;;;;;;;17.56;78.00;101807.63;4986432;28;20080;-65
2022/07/24 05:38:50;;;;;;;47.50;31.20;;;;;;;17.61;78.06;101817.34;4988870;28;20076;-65
2022/07/24 05:41:15;;;;;;;47.95;31.67;;;;;;;17.62;78.58;101811.19;4986428;28;20058;-65
2022/07/24 05:43:41;;;;;;;48.67;31.83;;;;;;;17.65;78.28;101814.75;4993773;28;20030;-65
2022/07/24 05:46:06;;;;;;;47.10;31.08;;;;;;;17.69;78.02;101810.41;4992526;28;20037;-65
2022/07/24 05:48:32;;;;;;;47.92;30.75;;;;;;;17.73;77.96;101820.09;4988710;28;20037;-65
2022/07/24 05:50:58;;;;;;;47.25;31.52;;;;;;;17.77;78.19;101810.47;4989054;28;20081;-65
2022/07/24 05:53:23;;;;;;;46.65;30.00;;;;;;;17.79;77.67;101814.88;4988389;28;20390;-65
2022/07/24 05:55:50;;;;;;;47.20;29.92;;;;;;;17.82;78.07;101809.63;4987868;28;20065;-65
2022/07/24 05:58:16;;;;;;;46.10;30.58;;;;;;;17.84;78.21;101807.00;4990448;28;20314;-65
2022/07/24 06:00:41;;;;;;;45.55;30.45;;;;;;;17.88;76.85;101814.09;4986252;28;20025;-65
2022/07/24 06:03:06;;;;;;;42.70;28.02;;;;;;;17.90;77.43;101812.34;4987365;28;20117;-65
2022/07/24 06:05:32;;;;;;;43.50;29.35;;;;;;;17.95;77.13;101815.06;4986824;28;20034;-65
2022/07/24 06:07:57;;;;;;;41.42;27.52;;;;;;;18.00;76.57;101818.59;4993164;28;20124;-65
2022/07/24 06:10:23;;;;;;;40.65;26.15;;;;;;;18.04;76.21;101815.13;4989762;28;20393;-65
2022/07/24 06:12:48;;;;;;;40.40;25.42;;;;;;;18.06;75.31;101806.38;4991078;28;20038;-65
2022/07/24 06:15:13;;;;;;;37.92;24.73;;;;;;;18.13;75.61;101823.09;4992130;28;20290;-65
2022/07/24 06:17:39;;;;;;;35.60;24.80;;;;;;;18.18;74.56;101817.88;4987287;28;20048;-65
2022/07/24 06:20:06;;;;;;;37.65;24.38;;;;;;;18.23;74.52;101818.78;4985033;28;20069;-65
2022/07/24 06:22:31;;;;;;;58.65;39.22;;;;;;;18.28;74.82;101816.19;4989234;28;20049;-65
2022/07/24 06:24:57;;;;;;;42.38;26.75;;;;;;;18.34;75.44;101817.13;4990288;28;20482;-65
2022/07/24 06:27:22;;;;;;;36.83;24.58;;;;;;;18.41;74.48;101818.06;4970927;28;20036;-65
2022/07/24 06:29:47;;;;;;;37.58;24.70;;;;;;;18.48;74.83;101816.31;4987793;28;20517;-65
2022/07/24 06:32:12;;;;;;;36.88;23.98;;;;;;;18.54;74.76;101817.25;4988744;28;20050;-65
2022/07/24 06:34:38;;;;;;;33.35;22.77;;;;;;;18.61;74.24;101818.19;4988408;28;20033;-65
2022/07/24 06:37:03;;;;;;;35.05;23.17;;;;;;;18.70;73.88;101823.50;4986253;28;20149;-65
2022/07/24 06:39:29;;;;;;;33.42;22.52;;;;;;;18.76;73.45;101827.94;4991806;28;20057;-65
2022/07/24 06:41:54;;;;;;;32.88;22.05;;;;;;;18.83;72.76;101828.84;4989869;28;20053;-65
2022/07/24 06:44:19;;;;;;;34.33;22.63;;;;;;;18.89;72.38;101827.16;4990352;28;20144;-65
2022/07/24 06:46:45;;;;;;;34.05;21.75;;;;;;;18.97;72.38;101821.91;4991337;28;20072;-65
2022/07/24 06:49:10;;;;;;;33.65;22.40;;;;;;;19.04;72.86;101814.91;4985982;28;20069;-65
2022/07/24 06:51:35;;;;;;;28.00;19.73;;;;;;;19.11;72.21;101814.91;4990697;28;20049;-65
2022/07/24 06:54:01;;;;;;;26.92;18.55;;;;;;;19.20;71.83;101814.06;4988307;28;20036;-65
2022/07/24 06:56:26;;;;;;;28.15;19.40;;;;;;;19.26;71.47;101818.50;4987597;28;20081;-66
2022/07/24 06:58:51;;;;;;;26.20;18.13;;;;;;;19.31;70.43;101806.19;4987519;28;20076;-66
2022/07/24 07:01:17;;;;;;;26.40;17.55;;;;;;;19.40;70.88;101810.59;4969655;28;20413;-66
2022/07/24 07:03:42;;;;;;;25.63;17.27;;;;;;;19.49;70.23;101815.03;4990289;28;20033;-65
2022/07/24 07:06:08;;;;;;;26.40;17.02;;;;;;;19.54;69.99;101805.38;4989053;28;20034;-65
2022/07/24 07:08:33;;;;;;;26.05;16.95;;;;;;;19.62;70.30;101806.25;4990323;28;20030;-65
2022/07/24 07:10:59;;;;;;;24.05;16.52;;;;;;;19.67;69.06;101801.84;4990056;28;20117;-65
2022/07/24 07:13:24;;;;;;;23.52;16.23;;;;;;;19.73;68.62;101799.19;4991836;28;20026;-65
2022/07/24 07:15:49;;;;;;;21.02;14.82;;;;;;;19.79;67.59;101798.38;4987677;28;20093;-65
2022/07/24 07:18:14;;;;;;;19.17;14.20;;;;;;;19.90;65.88;101809.84;4991517;28;20030;-65
2022/07/24 07:20:40;;;;;;;19.52;13.15;;;;;;;19.95;65.80;101820.41;4989581;28;20038;-65
2022/07/24 07:23:05;;;;;;;17.92;12.10;;;;;;;19.99;66.12;101816.88;4983618;28;20040;-65
2022/07/24 07:25:31;;;;;;;18.20;12.73;;;;;;;20.07;66.45;101817.75;4987739;28;20026;-65
2022/07/24 07:27:56;;;;;;;15.10;11.60;;;;;;;20.15;65.76;101817.78;4983828;28;20025;-65
2022/07/24 07:30:21;;;;;;;18.05;11.40;;;;;;;20.21;65.92;101814.25;4988464;28;20034;-66
2022/07/24 07:32:47;;;;;;;16.95;11.43;;;;;;;20.31;64.67;101810.69;4988299;28;20549;-66
2022/07/24 07:35:12;;;;;;;13.63;9.50;;;;;;;20.39;65.22;101810.66;4988420;28;20026;-66
2022/07/24 07:37:37;;;;;;;14.40;9.23;;;;;;;20.48;62.48;101813.31;4989505;28;20035;-65
2022/07/24 07:40:03;;;;;;;13.15;9.45;;;;;;;20.51;63.20;101813.31;4971481;28;20046;-65
2022/07/24 07:42:28;;;;;;;12.82;8.95;;;;;;;20.61;62.71;101809.75;4988717;28;20038;-65
2022/07/24 07:44:54;;;;;;;15.80;7.40;;;;;;;20.65;61.60;101811.50;4991598;28;20018;-65
2022/07/24 07:47:19;;;;;;;8.50;6.45;;;;;;;20.74;59.52;101813.28;4989443;28;20104;-65
2022/07/24 07:49:44;;;;;;;9.52;5.80;;;;;;;20.72;59.36;101812.38;4989520;28;20061;-65
2022/07/24 07:52:10;;;;;;;8.68;5.40;;;;;;;20.76;60.61;101810.63;4991263;28;20072;-65
2022/07/24 07:54:35;;;;;;;9.07;5.95;;;;;;;20.85;61.75;101815.88;4986903;28;20030;-65
2022/07/24 07:57:00;;;;;;;9.88;5.70;;;;;;;20.94;60.41;101813.22;4986641;28;20026;-65
2022/07/24 07:59:26;;;;;;;7.60;5.13;;;;;;;21.00;58.16;101805.22;4991346;28;20109;-65
2022/07/24 08:01:51;;;;;;;5.43;4.32;;;;;;;21.04;57.80;101800.78;4990659;28;20084;-65
2022/07/24 08:04:16;;;;;;;8.57;3.97;;;;;;;21.08;56.92;101797.25;4986718;28;20030;-66
2022/07/24 08:06:42;;;;;;;5.97;3.42;;;;;;;21.19;58.57;101806.03;4987429;28;20030;-65
2022/07/24 08:09:07;;;;;;;6.50;4.35;;;;;;;21.25;59.28;101799.81;4987868;28;20049;-65
2022/07/24 08:11:33;;;;;;;6.13;4.05;;;;;;;21.31;58.06;101794.47;4991250;28;20061;-65
2022/07/24 08:13:58;;;;;;;6.88;4.43;;;;;;;21.42;58.00;101793.50;4989906;28;20036;-65
2022/07/24 08:16:24;;;;;;;8.10;4.30;;;;;;;21.47;56.71;101797.03;4987556;28;20034;-65
2022/07/24 08:18:49;;;;;;;7.30;3.92;;;;;;;21.54;56.11;101799.66;4984725;28;20030;-65
2022/07/24 08:21:17;;;;;;;5.78;4.00;;;;;;;21.62;55.50;101799.59;4982859;28;20045;-65
2022/07/24 08:23:43;;;;;;;7.03;3.65;;;;;;;21.73;54.81;101801.31;4982196;28;20054;-65
2022/07/24 08:26:09;;;;;;;5.25;3.60;;;;;;;21.81;55.60;101794.16;4983460;28;20041;-65
2022/07/24 08:28:34;;;;;;;5.45;3.95;;;;;;;21.85;56.97;101803.84;4985760;28;20022;-65
2022/07/24 08:30:59;;;;;;;5.27;3.63;;;;;;;21.94;54.64;101795.84;4979030;28;20042;-66
2022/07/24 08:33:25;;;;;;;6.03;3.60;;;;;;;22.05;54.74;101801.91;4985521;28;20804;-65
2022/07/24 08:35:50;;;;;;;5.60;4.10;;;;;;;22.10;55.13;101798.34;4987656;28;20030;-65
2022/07/24 08:38:15;;;;;;;6.35;4.20;;;;;;;22.21;54.45;101799.13;4988505;28;20400;-64
2022/07/24 08:40:41;;;;;;;5.97;4.07;;;;;;;22.29;55.92;101799.94;4990682;28;20030;-65
2022/07/24 08:43:08;;;;;;;6.78;3.90;;;;;;;22.33;55.89;101799.03;4989660;28;20110;-65
2022/07/24 08:45:36;;;;;;;7.45;4.00;;;;;;;22.40;57.57;101795.44;4990573;28;20113;-65
2022/07/24 08:48:08;;;;;;;6.60;3.78;;;;;;;22.51;56.21;101805.06;4990585;28;20030;-65
2022/07/24 08:50:35;;;;;;;5.50;3.97;;;;;;;22.62;54.82;101799.63;4990407;28;20101;-65
2022/07/24 08:53:02;;;;;;;6.32;4.25;;;;;;;22.68;55.87;101791.56;4991239;28;20035;-65
2022/07/24 08:55:28;;;;;;;6.03;4.40;;;;;;;22.79;55.32;101797.63;4989595;28;20026;-65
2022/07/24 08:57:55;;;;;;;5.97;4.20;;;;;;;22.89;54.97;101793.09;4990512;28;20032;-65
2022/07/24 09:00:21;;;;;;;6.68;4.32;;;;;;;22.93;56.71;101789.50;4990049;28;20030;-65
2022/07/24 09:02:46;;;;;;;7.45;4.65;;;;;;;23.00;55.83;101792.94;4989307;28;20037;-65
2022/07/24 09:05:11;;;;;;;5.97;4.60;;;;;;;23.07;55.76;101798.19;4988209;28;20100;-65
2022/07/24 09:07:37;;;;;;;8.00;4.53;;;;;;;23.17;53.87;101790.97;4989449;28;20405;-65
2022/07/24 09:10:08;;;;;;;6.25;4.47;;;;;;;23.25;54.29;101796.19;4990169;28;20080;-65
2022/07/24 09:12:36;;;;;;;5.97;4.50;;;;;;;23.32;53.36;101791.66;4970843;28;20054;-65
2022/07/24 09:15:10;;;;;;;6.18;4.85;;;;;;;23.39;54.24;101788.91;4989012;28;20561;-65
2022/07/24 09:17:35;;;;;;;7.35;4.63;;;;;;;23.48;54.06;101779.00;4988538;28;20089;-65
2022/07/24 09:20:01;;;;;;;6.65;4.35;;;;;;;23.56;54.88;101785.09;4990349;28;20018;-65
2022/07/24 09:22:29;;;;;;;6.30;4.63;;;;;;;23.64;55.09;101771.66;4973304;28;20500;-65
2022/07/24 09:25:08;;;;;;;6.18;4.30;;;;;;;23.73;55.71;101772.38;4989858;28;20026;-65
2022/07/24 09:27:35;;;;;;;7.28;5.32;;;;;;;23.86;54.54;101772.19;4989229;28;20022;-65
2022/07/24 09:30:00;;;;;;;5.78;4.50;;;;;;;23.96;54.48;101769.38;4988475;28;20154;-65
2022/07/24 09:32:26;;;;;;;6.85;4.60;;;;;;;24.06;53.96;101771.88;4989120;28;20182;-65
2022/07/24 09:34:52;;;;;;;6.15;4.60;;;;;;;24.10;52.76;101758.47;4990082;28;20033;-65
2022/07/24 09:37:19;;;;;;;6.32;4.38;;;;;;;24.16;52.67;101754.84;4989157;28;20053;-65
2022/07/24 09:39:45;;;;;;;5.43;4.68;;;;;;;24.18;52.58;101754.81;4988737;28;20528;-65
2022/07/24 09:42:11;;;;;;;6.03;4.13;;;;;;;24.27;53.78;101758.19;4989869;28;20108;-65
2022/07/24 09:44:37;;;;;;;6.57;4.40;;;;;;;24.34;53.71;101753.59;4989999;28;20058;-65
2022/07/24 09:47:06;;;;;;;5.95;4.40;;;;;;;24.40;52.93;101758.78;4989303;28;20022;-65
2022/07/24 09:49:33;;;;;;;6.43;4.20;;;;;;;24.53;51.96;101750.56;4988493;28;20029;-65
2022/07/24 09:52:15;;;;;;;5.65;4.40;;;;;;;24.60;52.83;101754.91;4990237;28;20026;-65
2022/07/24 09:54:48;;;;;;;4.90;3.78;;;;;;;24.65;52.76;101753.00;4989708;28;20030;-65
2022/07/24 09:57:18;;;;;;;6.95;4.05;;;;;;;24.76;53.58;101750.13;4989057;28;20113;-65
2022/07/24 09:59:57;;;;;;;4.60;4.07;;;;;;;24.83;53.49;101741.94;4985509;28;20053;-65
2022/07/24 10:02:25;;;;;;;4.97;3.85;;;;;;;24.93;53.00;101741.78;4987934;28;20030;-65
2022/07/24 10:04:51;;;;;;;4.60;3.73;;;;;;;24.99;52.97;101755.81;4988593;28;20061;-65
2022/07/24 10:07:20;;;;;;;5.90;4.47;;;;;;;25.08;51.48;101746.75;4988568;28;20077;-65
2022/07/24 10:09:46;;;;;;;;;;;;;;;25.18;52.31;101742.94;4970052;28;20042;-65
2022/07/24 10:12:17;;;;;;;6.13;4.45;;;;;;;25.27;52.06;101736.50;4989743;28;20328;-65
2022/07/24 10:14:44;;;;;;;5.40;4.10;;;;;;;25.38;49.74;101741.66;4970898;28;20030;-65
2022/07/24 10:17:12;;;;;;;4.90;4.15;;;;;;;25.45;49.61;101734.38;4989548;28;20092;-65
2022/07/24 10:19:47;;;;;;;7.07;3.90;;;;;;;25.48;51.05;101736.97;4988913;28;20030;-65
2022/07/24 10:22:15;;;;;;;5.40;4.28;;;;;;;25.62;50.39;101731.25;4990233;28;20657;-65
2022/07/24 10:24:53;;;;;;;5.00;4.03;;;;;;;25.69;50.38;101723.09;4987864;28;20099;-65
2022/07/24 10:27:31;;;;;;;5.55;4.28;;;;;;;25.79;50.96;101728.16;4989986;28;20493;-65
2022/07/24 10:30:01;;;;;;;5.63;3.87;;;;;;;25.86;50.22;101725.28;4991508;28;20113;-65
2022/07/24 10:32:27;;;;;;;5.93;4.38;;;;;;;25.85;47.53;101715.56;4992236;28;20325;-65
2022/07/24 10:35:27;;;;;;;5.38;4.13;;;;;;;25.88;49.31;101713.69;4993165;28;20397;-65
2022/07/24 10:38:12;;;;;;;5.35;3.95;;;;;;;25.95;49.36;101717.97;4988392;28;20046;-61
2022/07/24 10:40:49;;;;;;;5.55;3.70;;;;;;;26.03;49.68;101721.34;4992142;28;20045;-61
2022/07/24 10:43:19;;;;;;;5.78;3.92;;;;;;;26.09;48.43;101715.81;4992915;28;20113;-60
2022/07/24 10:45:48;;;;;;;7.03;3.78;;;;;;;26.10;48.17;101717.59;4991989;28;20038;-61
2022/07/24 10:48:23;;;;;;;5.47;3.97;;;;;;;26.20;48.21;101708.41;4993576;28;20026;-61
2022/07/24 10:50:57;;;;;;;4.90;3.70;;;;;;;26.29;49.75;101711.75;4993285;28;20045;-61
2022/07/24 10:53:25;;;;;;;5.60;4.00;;;;;;;26.47;46.67;101711.19;4992515;28;20048;-61
2022/07/24 10:55:51;;;;;;;4.90;3.88;;;;;;;26.54;47.31;101699.38;4992202;28;20084;-61
2022/07/24 10:58:17;;;;;;;5.03;3.80;;;;;;;26.61;46.09;101701.91;4992652;28;20524;-60
2022/07/24 11:00:50;;;;;;;5.25;3.63;;;;;;;26.69;46.38;101699.88;4992257;28;20024;-60
2022/07/24 11:03:25;;;;;;;4.72;3.95;;;;;;;26.72;46.59;101700.69;4990517;28;20033;-61
2022/07/24 11:06:08;;;;;;;5.88;3.90;;;;;;;26.83;47.06;101702.16;4992512;28;20034;-61
2022/07/24 11:08:45;;;;;;;5.75;4.20;;;;;;;26.96;47.58;101694.63;4991294;28;20425;-65
2022/07/24 11:11:13;;;;;;;5.55;4.10;;;;;;;27.00;46.16;101690.94;4992227;28;20038;-65